Terminal Aerodrome Forecast
Issued by NWS

Home | Current Version | Previous Version | Text Only | Print | Product List | Glossary On
Versions: 1 2 3 4 5 6 7 8 9 10 11 12 13 14 15 16 17 18 19 20 21 22 23 24 25 26 27 28
000
FTUS46 KMTR 011720
TAFSFO
TAF
KSFO 011720Z 0118/0224 27010KT P6SM FEW015 FEW020 SCT150
     FM012000 28016G22KT P6SM FEW015 FEW200
     FM020300 26012KT P6SM SCT015
     FM020500 27011KT P6SM BKN013
     FM020800 26011KT P6SM OVC010
     FM021700 26016G22KT P6SM FEW012 SCT015=

USA.gov is the U.S. government's official web portal to all federal, state and local government web resources and services.